This is the latest recevied weather packets stored in our database for station/object YO8RXT-3. If no packets are shown the sender has not sent any weather packets the latest 10 day(s).
| Time | Temp. | Humidity | Pressure | Rain* | Wind** | Luminosity | Snow |
|---|---|---|---|---|---|---|---|
| 1777786504 | 6.11° C | 61% | 1023 hPa | - | - | - | - |
| 1777784703 | 6.11° C | 61% | 1023 hPa | - | - | - | - |
| 1777782903 | 5° C | 66% | 1023 hPa | - | - | - | - |
| 1777781104 | 3.89° C | 70% | 1023 hPa | - | - | - | - |
| 1777779303 | 2.22° C | 75% | 1023 hPa | - | - | - | - |
| 1777777503 | 2.22° C | 75% | 1023 hPa | - | - | - | - |
| 1777775703 | 1.11° C | 75% | 1023 hPa | - | - | - | - |
| 1777773902 | 2.78° C | 65% | 1023 hPa | - | - | - | - |
| 1777772103 | 3.89° C | 65% | 1023 hPa | - | - | - | - |
| 1777770303 | 3.89° C | 65% | 1023 hPa | - | - | - | - |
| 1777768502 | 3.89° C | 70% | 1023 hPa | - | - | - | - |
| 1777766703 | 2.78° C | 70% | 1023 hPa | - | - | - | - |
| 1777764903 | 6.11° C | 61% | 1023 hPa | - | - | - | - |
| 1777763102 | 7.22° C | 53% | 1023 hPa | - | - | - | - |
| 1777761302 | 7.22° C | 49% | 1023 hPa | - | - | - | - |
| 1777759503 | 7.22° C | 49% | 1023 hPa | - | - | - | - |
| 1777757702 | 7.22° C | 49% | 1023 hPa | - | - | - | - |
| 1777755902 | 7.78° C | 46% | 1023 hPa | - | - | - | - |
| 1777754103 | 7.78° C | 43% | 1023 hPa | - | - | - | - |
| 1777752303 | 8.89° C | 40% | 1023 hPa | - | - | - | - |
| 1777750503 | 8.89° C | 40% | 1023 hPa | - | - | - | - |
| 1777748702 | 8.89° C | 40% | 1023 hPa | - | - | - | - |
| 1777746903 | 10° C | 37% | 1023 hPa | - | - | - | - |
| 1777745103 | 10° C | 40% | 1023 hPa | - | - | - | - |
| 1777743302 | 11.11° C | 38% | 1023 hPa | - | - | - | - |
* Rain since midnight (hover to see other rain measurements)
** Current wind speed in m/s (hover to see current wind gust speed)